Bookmark and Share
Track history (hours):
 

Medemborg

Last reported at 2014-Apr-19 10:32 UTC. Time now 2014-Apr-19 22:11 UTC.
Position N 37°60' W 009°38'.

Length 135 m; draft 7.3 m.

Type: Cargo ship. MMSI: 306581000.

NotesDate/timePositionNaut miles runAvg speedWind from/ knotsBaromVisibWave heightAir tempDewpointWater temp
2014-Apr-19 10:32N 37°60' W 009°38'1312.7
2014-Apr-19 09:33N 37°48' W 009°34'7712.3
2014-Apr-19 03:16N 36°37' W 008°56'  
2014-Apr-16 01:23N 35°58' W 005°37'1113.2
2014-Apr-16 00:33N 36°01' W 005°24'1211.7
2014-Apr-15 23:33N 36°02' W 005°10'6 0.2
2014-Apr-14 15:34N 35°59' W 005°17'1211.5
2014-Apr-14 14:32N 35°54' W 005°30'1 0.8
2014-Apr-14 13:33N 35°53' W 005°30'0 0.0
2014-Apr-14 11:30N 35°53' W 005°30'0 0.0
2014-Apr-14 09:33N 35°53' W 005°30'0 0.0
2014-Apr-14 06:33N 35°53' W 005°30'0 0.0
2014-Apr-14 05:33N 35°53' W 005°30'0 0.0
2014-Apr-13 22:30N 35°53' W 005°30'0 0.0
2014-Apr-13 21:30N 35°53' W 005°30'0 0.0
2014-Apr-13 20:33N 35°53' W 005°30'0 0.0
2014-Apr-13 19:33N 35°53' W 005°30'0 0.0
2014-Apr-13 18:33N 35°53' W 005°30'0 0.0
2014-Apr-13 17:33N 35°53' W 005°30'0 0.0
2014-Apr-13 16:33N 35°53' W 005°30'0 0.0
2014-Apr-13 15:33N 35°53' W 005°30'0 0.0
2014-Apr-13 14:33N 35°53' W 005°30'0 0.0
2014-Apr-13 13:33N 35°53' W 005°30'0 0.0
2014-Apr-13 12:30N 35°53' W 005°30'0 0.0
2014-Apr-13 11:30N 35°53' W 005°30'0 0.0
2014-Apr-13 10:33N 35°53' W 005°30'0 0.0
2014-Apr-13 09:30N 35°53' W 005°30'0 0.0
2014-Apr-13 08:33N 35°53' W 005°30'0 0.0
2014-Apr-13 07:27N 35°53' W 005°30'6 5.6
2014-Apr-13 06:22N 35°54' W 005°38'9 8.8
2014-Apr-13 05:21N 35°53' W 005°49'7 9.1
2014-Apr-13 04:33N 35°53' W 005°57'  
2014-Apr-09 21:33N 37°27' W 009°45'1413.6
2014-Apr-09 20:29N 37°41' W 009°49'1313.5
2014-Apr-09 19:33N 37°54' W 009°53'1313.3
2014-Apr-09 18:33N 38°07' W 009°57'  

Dump ship's entire track history

sailing weather and tide predictions

Medemborg — PJAG — position and weather